Terminal Aerodrome Forecast
Issued by NWS Wilmington, OH

Current Version | Previous Version | Text Only | Print | Product List | Glossary Off
Versions: 1 2 3 4 5 6 7 8 9 10 11 12 13 14 15 16 17 18 19 20 21 22 23 24 25 26 27

000
FTUS41 KILN 160856 AAA
TAFILN
TAF AMD
KILN 160856Z 1609/1706 09005KT 2SM BR OVC002
     FM161500 10006KT 2SM BR OVC006
     FM161800 13008KT 4SM BR OVC012
     FM170000 15006KT P6SM VCSH OVC006=

USA.gov is the U.S. government's official web portal to all federal, state and local government web resources and services.